createdAt,value
2022-12-19T00:04:37.749Z,102127.81
2022-12-19T00:09:39.383Z,102140.13
2022-12-19T00:14:41.098Z,102126.00
2022-12-19T00:19:43.257Z,102122.09
2022-12-19T00:24:44.870Z,102127.09
2022-12-19T00:29:46.536Z,102134.22
2022-12-19T00:34:48.223Z,102143.88
2022-12-19T00:39:49.882Z,102115.09
2022-12-19T00:44:51.450Z,102112.09
2022-12-19T00:50:04.039Z,102097.31
2022-12-19T00:55:06.410Z,102087.72
2022-12-19T01:00:16.016Z,102087.84
2022-12-19T01:05:17.679Z,102092.91
2022-12-19T01:10:19.354Z,102097.72
2022-12-19T01:15:21.794Z,102105.44
2022-12-19T01:20:23.465Z,102078.97
2022-12-19T01:25:34.590Z,102074.19
2022-12-19T01:30:40.824Z,102073.28
2022-12-19T01:35:45.121Z,102058.84
2022-12-19T01:40:58.227Z,102116.28
2022-12-19T01:46:03.565Z,102124.88
2022-12-19T01:51:19.882Z,102135.59
2022-12-19T01:56:31.783Z,102120.44
2022-12-19T02:01:34.896Z,102099.31
2022-12-19T02:06:39.317Z,102126.59
2022-12-19T02:11:41.018Z,102116.72
2022-12-19T02:16:48.936Z,102135.22
2022-12-19T02:22:17.435Z,102128.84
2022-12-19T02:27:53.228Z,102128.28
2022-12-19T02:33:17.334Z,102136.94
2022-12-19T02:38:32.209Z,102120.47
2022-12-19T02:43:40.632Z,102120.75
2022-12-19T02:48:44.222Z,102117.38
2022-12-19T02:53:46.212Z,102110.63
2022-12-19T02:59:06.970Z,102109.25
2022-12-19T03:04:16.097Z,102104.72
2022-12-19T03:09:32.012Z,102096.59
2022-12-19T03:14:35.796Z,102086.88
2022-12-19T03:19:40.182Z,102073.16
2022-12-19T03:24:41.919Z,102066.19
2022-12-19T03:29:51.100Z,102061.25
2022-12-19T03:34:59.739Z,102073.69
2022-12-19T03:40:12.745Z,102055.41
2022-12-19T03:45:22.528Z,102063.91
2022-12-19T03:50:33.545Z,102047.44
2022-12-19T03:56:05.270Z,102047.81
2022-12-19T04:01:07.664Z,102051.06
2022-12-19T04:06:13.420Z,102042.97
2022-12-19T04:11:20.168Z,102021.16
2022-12-19T04:16:24.806Z,102014.28
2022-12-19T04:21:32.098Z,102018.06
2022-12-19T04:26:36.203Z,102013.66
2022-12-19T04:31:38.506Z,102036.34
2022-12-19T04:36:40.396Z,102028.22
2022-12-19T04:41:42.317Z,102027.97
2022-12-19T04:46:44.040Z,102026.56
2022-12-19T04:51:45.984Z,102018.25
2022-12-19T04:56:47.558Z,102009.84
2022-12-19T05:01:49.213Z,102011.91
2022-12-19T05:06:50.826Z,102013.94
2022-12-19T05:11:52.454Z,102023.22
2022-12-19T05:17:00.428Z,102030.56
2022-12-19T05:22:03.240Z,102027.91
2022-12-19T05:27:08.378Z,102030.41
2022-12-19T05:32:10.098Z,102019.63
2022-12-19T05:37:11.675Z,102018.88
2022-12-19T05:42:13.218Z,102019.94
2022-12-19T05:47:14.802Z,102021.72
2022-12-19T05:52:16.767Z,102026.91
2022-12-19T05:57:18.390Z,102018.88
2022-12-19T06:02:20.055Z,102015.50
2022-12-19T06:07:21.620Z,102010.44
2022-12-19T06:12:24.145Z,102010.34
2022-12-19T06:17:25.730Z,102007.63
2022-12-19T06:22:27.423Z,102015.88
2022-12-19T06:27:29.011Z,102013.72
2022-12-19T06:32:36.208Z,102027.59
2022-12-19T06:37:39.701Z,102035.25
2022-12-19T06:42:41.388Z,102034.16
2022-12-19T06:47:42.993Z,102047.69
2022-12-19T06:52:45.232Z,102036.59
2022-12-19T06:57:53.091Z,102041.69
2022-12-19T07:02:56.023Z,102052.13
2022-12-19T07:07:57.808Z,102050.13
2022-12-19T07:13:01.821Z,102045.44
2022-12-19T07:18:07.074Z,102058.53
2022-12-19T07:23:17.210Z,102061.06
2022-12-19T07:28:18.901Z,102058.53
2022-12-19T07:33:21.994Z,102052.88
2022-12-19T07:38:23.853Z,102055.84
2022-12-19T07:43:26.039Z,102048.03
2022-12-19T07:48:30.727Z,102049.34
2022-12-19T07:53:32.519Z,102064.91
2022-12-19T07:58:34.096Z,102058.19
2022-12-19T08:03:36.015Z,102057.59
2022-12-19T08:08:37.860Z,102066.97
2022-12-19T08:13:46.227Z,102070.75
2022-12-19T08:18:48.457Z,102070.94
2022-12-19T08:23:50.023Z,102040.91
2022-12-19T08:28:56.268Z,102069.63
2022-12-19T08:33:57.945Z,102071.59
2022-12-19T08:38:59.516Z,102081.13
2022-12-19T08:44:01.860Z,102090.09
2022-12-19T08:49:03.741Z,102088.34
2022-12-19T08:54:07.944Z,102096.03
2022-12-19T08:59:13.950Z,102102.31
2022-12-19T09:05:43.717Z,102096.72
2022-12-19T09:09:41.313Z,102092.53
2022-12-19T09:14:44.555Z,102093.56
2022-12-19T09:19:48.088Z,102082.91
2022-12-19T09:24:49.945Z,102087.34
2022-12-19T09:29:51.586Z,102086.44
2022-12-19T09:34:53.153Z,102086.44
2022-12-19T09:39:58.828Z,102105.34
2022-12-19T09:45:32.381Z,102104.16
2022-12-19T09:50:56.478Z,102106.41
2022-12-19T09:56:15.929Z,102108.06
2022-12-19T10:01:27.366Z,102117.34
2022-12-19T10:07:12.557Z,102116.75
2022-12-19T10:12:40.457Z,102129.13
2022-12-19T10:18:06.518Z,102135.88
2022-12-19T10:23:45.640Z,102150.03
2022-12-19T10:29:15.599Z,102138.81
2022-12-19T10:34:41.063Z,102128.81
2022-12-19T10:39:45.923Z,102092.44
2022-12-19T10:44:49.236Z,102098.13
2022-12-19T10:49:52.749Z,102110.16
2022-12-19T10:54:54.387Z,102113.00
2022-12-19T10:59:55.952Z,102104.81
2022-12-19T11:04:57.792Z,102106.50
2022-12-19T11:11:45.304Z,102104.22
2022-12-19T11:19:30.833Z,102113.03
2022-12-19T11:29:30.653Z,102096.47
2022-12-19T11:30:43.172Z,102097.25
2022-12-19T11:32:46.642Z,102100.81
2022-12-19T11:37:56.429Z,102089.72
2022-12-19T11:43:42.633Z,102077.03
2022-12-19T11:48:55.268Z,102063.13
2022-12-19T11:54:10.126Z,102066.25
2022-12-19T11:59:20.713Z,102049.03
2022-12-19T12:04:43.805Z,102045.06
2022-12-19T12:14:39.768Z,102041.72
2022-12-19T12:23:43.141Z,102035.22
2022-12-19T12:31:10.656Z,102018.97
2022-12-19T12:32:06.316Z,102014.53
2022-12-19T12:35:36.473Z,101985.53
2022-12-19T12:43:37.536Z,101965.94
2022-12-19T12:49:00.607Z,101961.19
2022-12-19T12:54:07.619Z,101951.19
2022-12-19T12:59:20.957Z,101941.22
2022-12-19T13:04:36.041Z,101918.03
2022-12-19T13:09:37.781Z,101909.28
2022-12-19T13:14:44.297Z,101903.56
2022-12-19T13:19:55.649Z,101908.59
2022-12-19T13:24:59.825Z,101902.06
2022-12-19T13:30:01.392Z,101890.47
2022-12-19T13:35:58.326Z,101874.44
2022-12-19T13:40:58.116Z,101857.63
2022-12-19T13:46:02.971Z,101838.56
2022-12-19T13:51:12.597Z,101823.88
2022-12-19T13:56:19.678Z,101808.75
2022-12-19T14:01:27.343Z,101798.66
2022-12-19T14:06:38.331Z,101778.34
2022-12-19T14:13:45.944Z,101771.31
2022-12-19T14:17:15.157Z,101763.22
2022-12-19T14:22:24.723Z,101746.47
2022-12-19T14:28:26.669Z,101738.78
2022-12-19T14:33:44.433Z,101730.59
2022-12-19T14:39:24.939Z,101720.34
2022-12-19T14:54:02.261Z,101711.16
2022-12-19T14:54:09.344Z,101709.56
2022-12-19T14:56:09.363Z,101718.16
2022-12-19T15:01:10.040Z,101696.66
2022-12-19T15:07:05.028Z,101678.22
2022-12-19T15:13:30.044Z,101693.25
2022-12-19T15:17:26.243Z,101686.81
2022-12-19T15:22:27.783Z,101667.41
2022-12-19T15:27:29.669Z,101655.66
2022-12-19T15:32:31.426Z,101652.03
2022-12-19T15:37:32.958Z,101669.88
2022-12-19T15:42:35.087Z,101676.25
2022-12-19T15:47:37.516Z,101684.78
2022-12-19T15:53:20.607Z,101683.63
2022-12-19T15:58:28.647Z,101685.94
2022-12-19T16:03:33.662Z,101687.00
2022-12-19T16:08:38.456Z,101666.97
2022-12-19T16:13:42.868Z,101657.34
2022-12-19T16:18:45.373Z,101656.50
2022-12-19T16:23:47.296Z,101634.13
2022-12-19T16:28:49.280Z,101624.66
2022-12-19T16:33:50.897Z,101615.03
2022-12-19T16:38:52.497Z,101609.41
2022-12-19T16:43:56.279Z,101587.28
2022-12-19T16:48:58.016Z,101595.09
2022-12-19T16:54:00.418Z,101604.22
2022-12-19T16:59:11.370Z,101607.03
2022-12-19T17:04:18.657Z,101616.72
2022-12-19T17:09:26.615Z,101608.25
2022-12-19T17:14:34.778Z,101603.59
2022-12-19T17:19:39.190Z,101607.13
2022-12-19T17:24:41.248Z,101614.13
2022-12-19T17:29:43.421Z,101593.94
2022-12-19T17:34:44.997Z,101570.84
2022-12-19T17:39:48.426Z,101563.66
2022-12-19T17:44:51.045Z,101554.34
2022-12-19T17:49:52.784Z,101554.03
2022-12-19T17:54:59.640Z,101558.66
2022-12-19T18:00:01.250Z,101575.78
2022-12-19T18:05:03.923Z,101554.63
2022-12-19T18:10:14.679Z,101552.56
2022-12-19T18:15:17.321Z,101564.00
2022-12-19T18:20:31.217Z,101561.81
2022-12-19T18:25:35.812Z,101540.53
2022-12-19T18:30:52.555Z,101543.34
2022-12-19T18:35:54.193Z,101531.69
2022-12-19T18:40:56.846Z,101518.34
2022-12-19T18:45:58.487Z,101529.69
2022-12-19T18:51:01.187Z,101529.91
2022-12-19T18:56:06.002Z,101535.34
2022-12-19T19:01:15.554Z,101541.84
2022-12-19T19:06:20.578Z,101533.53
2022-12-19T19:11:23.552Z,101536.63
2022-12-19T19:16:27.297Z,101543.59
2022-12-19T19:21:33.415Z,101550.69
2022-12-19T19:26:37.024Z,101540.47
2022-12-19T19:31:41.503Z,101528.28
2022-12-19T19:36:46.433Z,101533.56
2022-12-19T19:41:48.166Z,101535.97
2022-12-19T19:46:50.032Z,101540.97
2022-12-19T19:51:56.813Z,101544.91
2022-12-19T19:57:12.127Z,101548.88
2022-12-19T20:02:16.731Z,101557.31
2022-12-19T20:07:18.611Z,101565.84
2022-12-19T20:12:20.335Z,101552.09
2022-12-19T20:17:23.251Z,101548.09
2022-12-19T20:22:27.354Z,101554.50
2022-12-19T20:27:28.851Z,101535.09
2022-12-19T20:32:32.671Z,101540.22
2022-12-19T20:37:34.265Z,101538.31
2022-12-19T20:42:36.073Z,101534.66
2022-12-19T20:47:37.620Z,101531.44
2022-12-19T20:52:39.219Z,101541.91
2022-12-19T20:57:40.749Z,101552.53
2022-12-19T21:03:17.238Z,101551.44
2022-12-19T21:08:04.361Z,101539.97
2022-12-19T21:13:07.199Z,101540.44
2022-12-19T21:18:09.150Z,101537.66
2022-12-19T21:23:10.700Z,101525.22
2022-12-19T21:28:12.380Z,101529.81
2022-12-19T21:33:13.941Z,101540.53
2022-12-19T21:38:15.580Z,101534.88
2022-12-19T21:43:17.120Z,101544.41
2022-12-19T21:48:18.801Z,101541.78
2022-12-19T21:53:20.603Z,101557.03
2022-12-19T21:58:22.112Z,101547.38
2022-12-19T22:03:23.826Z,101545.16
2022-12-19T22:08:26.056Z,101547.88
2022-12-19T22:13:28.233Z,101540.38
2022-12-19T22:18:30.142Z,101542.44
2022-12-19T22:23:32.473Z,101545.88
2022-12-19T22:28:36.641Z,101540.34
2022-12-19T22:33:38.152Z,101533.72
2022-12-19T22:38:43.232Z,101525.63
2022-12-19T22:43:45.503Z,101531.78
2022-12-19T22:48:49.183Z,101527.81
2022-12-19T22:53:50.787Z,101528.25
2022-12-19T22:58:53.756Z,101527.34
2022-12-19T23:03:58.645Z,101515.28
2022-12-19T23:09:00.592Z,101513.66
2022-12-19T23:14:03.477Z,101520.28
2022-12-19T23:19:05.291Z,101518.34
2022-12-19T23:24:07.191Z,101516.97
2022-12-19T23:29:11.827Z,101507.00
2022-12-19T23:34:15.320Z,101508.75
2022-12-19T23:39:16.994Z,101497.75
2022-12-19T23:44:18.730Z,101496.16
2022-12-19T23:49:20.285Z,101491.06
2022-12-19T23:54:21.949Z,101480.75
2022-12-19T23:59:23.849Z,101472.03
